Time;durP1;ratioP1;P1;durP2;ratioP2;P2;SDS_P1;SDS_P2;PMS_P1;PMS_P2;Temp;Humidity;BMP_temperature;BMP_pressure;BME280_temperature;BME280_humidity;BME280_pressure;Samples;Min_cycle;Max_cycle;Signal;HPM_P1;HPM_P2
2023/01/05 00:01:24;;;;;;;;;;;18.90;99.90;;;;;;5013905;28;19929;-68
2023/01/05 00:03:51;;;;;;;;;;;18.90;99.90;;;;;;5014124;28;19913;-69
2023/01/05 00:06:27;;;;;;;;;;;19.00;99.90;;;;;;5013726;28;19917;-69
2023/01/05 00:08:54;;;;;;;;;;;19.10;99.90;;;;;;5014090;28;19910;-67
2023/01/05 00:22:32;;;;;;;;;;;19.70;99.90;;;;;;5013321;28;19916;-68
2023/01/05 00:25:09;;;;;;;;;;;20.10;99.90;;;;;;5013841;28;19913;-71
2023/01/05 00:27:36;;;;;;;;;;;20.10;99.90;;;;;;5013067;28;20020;-76
2023/01/05 00:30:04;;;;;;;;;;;20.30;99.90;;;;;;5013663;28;20340;-76
2023/01/05 00:32:30;;;;;;;;;;;20.30;99.90;;;;;;5013514;28;19909;-75
2023/01/05 00:34:57;;;;;;;;;;;20.20;99.90;;;;;;5013190;28;20370;-72
2023/01/05 00:37:25;;;;;;;;;;;20.10;99.90;;;;;;5012941;28;19910;-77
2023/01/05 00:39:52;;;;;;;;;;;20.10;99.90;;;;;;5013652;28;20249;-78
2023/01/05 00:42:19;;;;;;;;;;;20.00;99.90;;;;;;5013448;28;19921;-78
2023/01/05 00:44:46;;;;;;;;;;;19.80;99.90;;;;;;5013541;28;19909;-76
2023/01/05 00:47:13;;;;;;;;;;;19.80;99.90;;;;;;5012841;28;20302;-76
2023/01/05 00:49:40;;;;;;;;;;;19.80;99.90;;;;;;5013211;28;19917;-76
2023/01/05 00:52:07;;;;;;;;;;;19.80;99.90;;;;;;5013226;28;19909;-77
2023/01/05 00:54:33;;;;;;;;;;;19.80;99.90;;;;;;5013091;28;19932;-76
2023/01/05 00:57:02;;;;;;;;;;;19.80;99.90;;;;;;5012835;28;19992;-75
2023/01/05 00:59:28;;;;;;;;;;;19.80;99.90;;;;;;5013089;28;19917;-75
2023/01/05 01:01:55;;;;;;;;;;;19.80;99.90;;;;;;5013249;28;20344;-77
2023/01/05 01:04:22;;;;;;;;;;;19.80;99.90;;;;;;5012857;28;19914;-77
2023/01/05 01:06:49;;;;;;;;;;;19.90;99.90;;;;;;5012847;28;19968;-76
2023/01/05 01:09:16;;;;;;;;;;;19.80;99.90;;;;;;5012618;28;19913;-74
2023/01/05 01:11:43;;;;;;;;;;;19.80;99.90;;;;;;5012923;28;19924;-77
2023/01/05 01:14:10;;;;;;;;;;;19.80;99.90;;;;;;5012849;28;19918;-76
2023/01/05 01:16:37;;;;;;;;;;;19.90;99.90;;;;;;5011078;28;19925;-75
2023/01/05 01:19:04;;;;;;;;;;;19.80;99.90;;;;;;5012696;28;19971;-74
2023/01/05 01:21:30;;;;;;;;;;;19.70;99.90;;;;;;5012548;28;19990;-76
2023/01/05 01:23:57;;;;;;;;;;;19.60;99.90;;;;;;5012666;28;20267;-78
2023/01/05 01:26:24;;;;;;;;;;;19.70;99.90;;;;;;5012421;28;19914;-77
2023/01/05 01:28:51;;;;;;;;;;;19.60;99.90;;;;;;5012805;28;19967;-77
2023/01/05 01:31:17;;;;;;;;;;;19.60;99.90;;;;;;5012272;28;19972;-77
2023/01/05 01:33:44;;;;;;;;;;;19.70;99.90;;;;;;5011846;28;19921;-73
2023/01/05 01:36:11;;;;;;;;;;;19.60;99.90;;;;;;5011953;28;19972;-77
2023/01/05 01:38:37;;;;;;;;;;;19.60;99.90;;;;;;5012310;28;19909;-76
2023/01/05 01:41:04;;;;;;;;;;;19.60;99.90;;;;;;5012407;28;20008;-78
2023/01/05 01:43:45;;;;;;;;;;;19.80;99.90;;;;;;5012298;28;19909;-78
2023/01/05 01:46:12;;;;;;;;;;;20.00;99.90;;;;;;5012173;28;20028;-77
2023/01/05 01:48:40;;;;;;;;;;;20.20;99.90;;;;;;5012782;28;20016;-77
2023/01/05 01:51:10;;;;;;;;;;;20.10;99.90;;;;;;5012965;28;20336;-76
2023/01/05 01:53:39;;;;;;;;;;;20.00;99.90;;;;;;5012251;28;20261;-68
2023/01/05 01:56:06;;;;;;;;;;;20.10;99.90;;;;;;5011939;28;19909;-69
2023/01/05 01:58:33;;;;;;;;;;;20.10;99.90;;;;;;5012007;28;19952;-68
2023/01/05 02:01:00;;;;;;;;;;;20.20;99.90;;;;;;5012295;28;19909;-70
2023/01/05 02:03:27;;;;;;;;;;;20.20;99.90;;;;;;5011915;28;19920;-71
2023/01/05 02:05:54;;;;;;;;;;;20.20;99.90;;;;;;5011814;28;19924;-70
2023/01/05 02:08:30;;;;;;;;;;;20.20;99.90;;;;;;5011967;28;19914;-67
2023/01/05 02:11:09;;;;;;;;;;;20.30;99.90;;;;;;5012071;28;19909;-68
2023/01/05 02:13:50;;;;;;;;;;;20.50;99.90;;;;;;5011779;28;20235;-71
2023/01/05 02:16:27;;;;;;;;;;;20.60;99.90;;;;;;5012075;28;19917;-73
2023/01/05 02:18:53;;;;;;;;;;;20.70;99.90;;;;;;5012658;28;19921;-76
2023/01/05 02:21:29;;;;;;;;;;;21.00;99.90;;;;;;5012177;28;20282;-72
2023/01/05 02:24:04;;;;;;;;;;;21.00;99.90;;;;;;5012145;28;20504;-72
2023/01/05 02:26:48;;;;;;;;;;;20.70;99.90;;;;;;5011648;28;19917;-70
2023/01/05 02:29:27;;;;;;;;;;;20.80;99.90;;;;;;5010434;28;19916;-77
2023/01/05 02:32:01;;;;;;;;;;;20.80;99.90;;;;;;5012062;28;20001;-69
2023/01/05 02:34:27;;;;;;;;;;;20.70;99.90;;;;;;5011793;28;20016;-74
2023/01/05 02:36:57;;;;;;;;;;;20.70;99.90;;;;;;5011758;28;19916;-70
2023/01/05 02:39:26;;;;;;;;;;;20.90;99.90;;;;;;5011669;28;20451;-73
2023/01/05 02:41:58;;;;;;;;;;;21.10;99.90;;;;;;5011771;28;19919;-68
2023/01/05 02:44:27;;;;;;;;;;;21.20;99.90;;;;;;5011755;28;19967;-69
2023/01/05 02:47:05;;;;;;;;;;;20.80;99.90;;;;;;5015179;28;19917;-69
2023/01/05 02:49:34;;;;;;;;;;;20.70;99.90;;;;;;5015482;28;19918;-70
2023/01/05 02:52:02;;;;;;;;;;;20.90;99.90;;;;;;5015565;28;20016;-72
2023/01/05 02:54:38;;;;;;;;;;;20.90;99.90;;;;;;5015549;28;19921;-68
2023/01/05 02:57:45;;;;;;;;;;;21.00;99.90;;;;;;5015300;28;19910;-69
2023/01/05 03:00:14;;;;;;;;;;;20.70;99.90;;;;;;5015746;28;19920;-70
2023/01/05 03:02:42;;;;;;;;;;;20.70;99.90;;;;;;5015551;28;19910;-76
2023/01/05 03:05:09;;;;;;;;;;;20.70;99.90;;;;;;5015342;28;19921;-70
2023/01/05 03:07:38;;;;;;;;;;;20.90;99.90;;;;;;5014710;28;19910;-73
2023/01/05 03:15:41;;;;;;;;;;;20.60;99.90;;;;;;5014852;28;19980;-70
2023/01/05 03:18:09;;;;;;;;;;;20.30;99.90;;;;;;5014630;28;20004;-72
2023/01/05 03:20:38;;;;;;;;;;;20.50;99.90;;;;;;5015177;28;19997;-69
2023/01/05 03:37:18;;;;;;;;;;;20.70;99.90;;;;;;5014430;28;19935;-75
2023/01/05 03:39:46;;;;;;;;;;;21.00;99.90;;;;;;5015032;28;19909;-71
2023/01/05 03:42:14;;;;;;;;;;;21.10;99.90;;;;;;5015074;28;19913;-71
2023/01/05 03:44:43;;;;;;;;;;;20.90;99.90;;;;;;5014398;28;19919;-69
2023/01/05 03:47:10;;;;;;;;;;;20.80;99.90;;;;;;5014139;28;20214;-70
2023/01/05 03:49:36;;;;;;;;;;;21.10;99.90;;;;;;5014251;28;20356;-68
2023/01/05 03:52:03;;;;;;;;;;;21.10;99.90;;;;;;5013993;28;19924;-68
2023/01/05 03:54:30;;;;;;;;;;;21.00;99.90;;;;;;5014394;28;19917;-68
2023/01/05 03:56:57;;;;;;;;;;;21.20;99.90;;;;;;5013006;28;20386;-68
2023/01/05 03:59:23;;;;;;;;;;;21.20;99.90;;;;;;5014301;28;19928;-73
2023/01/05 04:01:50;;;;;;;;;;;21.20;99.90;;;;;;5012469;28;19917;-70
2023/01/05 04:04:17;;;;;;;;;;;21.20;99.90;;;;;;5014236;28;19936;-69
2023/01/05 04:06:43;;;;;;;;;;;21.30;99.90;;;;;;5014089;28;19914;-69
2023/01/05 04:09:10;;;;;;;;;;;21.30;99.90;;;;;;5016649;28;19917;-75
2023/01/05 04:11:37;;;;;;;;;;;21.30;99.90;;;;;;5016428;28;19914;-71
2023/01/05 04:14:03;;;;;;;;;;;21.20;99.90;;;;;;5014563;28;19914;-76
2023/01/05 04:16:30;;;;;;;;;;;20.90;99.90;;;;;;5013813;28;19914;-68
2023/01/05 04:18:57;;;;;;;;;;;20.70;99.90;;;;;;5014254;28;19913;-71
2023/01/05 04:21:23;;;;;;;;;;;20.90;99.90;;;;;;5014297;28;19976;-68
2023/01/05 04:23:50;;;;;;;;;;;21.00;99.90;;;;;;5014266;28;19924;-73
2023/01/05 04:26:17;;;;;;;;;;;20.90;99.90;;;;;;5013895;28;20013;-77
2023/01/05 04:28:43;;;;;;;;;;;20.80;99.90;;;;;;5014499;28;19948;-78
2023/01/05 04:31:10;;;;;;;;;;;20.80;99.90;;;;;;5014547;28;20288;-74
2023/01/05 04:33:38;;;;;;;;;;;20.90;99.90;;;;;;5014007;28;19913;-70
2023/01/05 04:36:06;;;;;;;;;;;20.80;99.90;;;;;;5013522;28;19925;-75
2023/01/05 04:38:33;;;;;;;;;;;20.70;99.90;;;;;;5014175;28;19917;-74
2023/01/05 04:40:59;;;;;;;;;;;20.70;99.90;;;;;;5013784;28;20320;-68
2023/01/05 04:43:29;;;;;;;;;;;20.40;99.90;;;;;;5013611;28;19923;-68
2023/01/05 04:45:56;;;;;;;;;;;20.30;99.90;;;;;;5013369;28;19921;-70
2023/01/05 04:48:22;;;;;;;;;;;19.80;99.90;;;;;;5013226;28;19910;-70
2023/01/05 04:50:53;;;;;;;;;;;19.50;99.90;;;;;;5013261;28;19913;-68
2023/01/05 04:53:23;;;;;;;;;;;19.50;99.90;;;;;;5012871;28;19909;-69
2023/01/05 04:55:50;;;;;;;;;;;19.60;99.90;;;;;;5012704;28;19921;-68
2023/01/05 04:58:16;;;;;;;;;;;19.40;99.90;;;;;;5013154;28;20383;-69
2023/01/05 05:00:43;;;;;;;;;;;19.20;99.90;;;;;;5013092;28;19954;-69
2023/01/05 05:03:10;;;;;;;;;;;19.20;99.90;;;;;;5013280;28;19909;-69
2023/01/05 05:05:36;;;;;;;;;;;19.30;99.90;;;;;;5012104;28;19910;-69
2023/01/05 05:08:03;;;;;;;;;;;19.50;99.90;;;;;;5012817;28;19917;-69
2023/01/05 05:10:29;;;;;;;;;;;19.80;99.90;;;;;;5012847;28;19909;-69
2023/01/05 05:12:56;;;;;;;;;;;19.90;99.90;;;;;;5012933;28;19913;-68
2023/01/05 05:15:23;;;;;;;;;;;20.00;99.90;;;;;;5012047;28;20110;-72
2023/01/05 05:17:49;;;;;;;;;;;20.00;99.90;;;;;;5012892;28;19909;-70
2023/01/05 05:20:16;;;;;;;;;;;20.00;99.90;;;;;;5012737;28;19972;-69
2023/01/05 05:22:43;;;;;;;;;;;19.90;99.90;;;;;;5012771;28;19909;-69
2023/01/05 05:25:09;;;;;;;;;;;19.80;99.90;;;;;;5012216;28;19910;-68
2023/01/05 05:27:36;;;;;;;;;;;19.60;99.90;;;;;;5012497;28;20000;-71
2023/01/05 05:30:03;;;;;;;;;;;19.50;99.90;;;;;;5012511;28;19913;-70
2023/01/05 05:32:29;;;;;;;;;;;19.50;99.90;;;;;;5012562;28;19909;-68
2023/01/05 05:34:56;;;;;;;;;;;19.30;99.90;;;;;;5012319;28;19928;-67
2023/01/05 05:37:23;;;;;;;;;;;19.20;99.90;;;;;;5011886;28;19921;-68
2023/01/05 05:39:49;;;;;;;;;;;19.10;99.90;;;;;;5012513;28;19932;-68
2023/01/05 05:42:17;;;;;;;;;;;19.10;99.90;;;;;;5012710;28;20229;-68
2023/01/05 05:44:44;;;;;;;;;;;19.00;99.90;;;;;;5012545;28;19914;-69
2023/01/05 05:47:10;;;;;;;;;;;18.80;99.90;;;;;;5012321;28;19917;-72
2023/01/05 05:49:37;;;;;;;;;;;18.70;99.90;;;;;;5012434;28;20271;-72
2023/01/05 05:52:04;;;;;;;;;;;18.80;99.90;;;;;;5011723;28;20100;-68
2023/01/05 05:54:30;;;;;;;;;;;18.80;99.90;;;;;;5011535;28;19921;-69
2023/01/05 05:56:57;;;;;;;;;;;18.80;99.90;;;;;;5011677;28;19921;-69
2023/01/05 05:59:23;;;;;;;;;;;18.70;99.90;;;;;;5011962;28;19956;-70
2023/01/05 06:01:51;;;;;;;;;;;18.40;99.90;;;;;;5011938;28;19913;-68
2023/01/05 06:04:17;;;;;;;;;;;18.10;99.90;;;;;;5011993;28;19910;-69
2023/01/05 06:06:44;;;;;;;;;;;18.00;99.90;;;;;;5010299;28;19913;-71
2023/01/05 06:09:11;;;;;;;;;;;17.80;99.90;;;;;;5010387;28;20000;-73
2023/01/05 06:11:40;;;;;;;;;;;17.90;99.90;;;;;;5010534;28;19949;-74
2023/01/05 06:14:07;;;;;;;;;;;17.80;99.90;;;;;;5010194;28;20403;-71
2023/01/05 06:16:34;;;;;;;;;;;17.80;99.90;;;;;;5009724;28;19917;-71
2023/01/05 06:19:00;;;;;;;;;;;17.80;99.90;;;;;;5010007;28;19909;-71
2023/01/05 06:21:27;;;;;;;;;;;17.80;99.90;;;;;;5015251;28;19920;-73
2023/01/05 06:23:54;;;;;;;;;;;17.60;99.90;;;;;;5016409;28;19914;-72
2023/01/05 06:26:20;;;;;;;;;;;17.40;99.90;;;;;;5016245;28;19913;-75
2023/01/05 06:28:47;;;;;;;;;;;17.20;99.90;;;;;;5016422;28;20379;-71
2023/01/05 06:31:13;;;;;;;;;;;17.20;99.90;;;;;;5016046;28;19996;-75
2023/01/05 06:33:40;;;;;;;;;;;17.10;99.90;;;;;;5015842;28;19914;-74
2023/01/05 06:36:10;;;;;;;;;;;17.10;99.90;;;;;;5016927;28;19932;-69
2023/01/05 06:38:36;;;;;;;;;;;17.10;99.90;;;;;;5016341;28;20016;-70
2023/01/05 06:41:03;;;;;;;;;;;17.20;99.90;;;;;;5016154;28;20012;-70
2023/01/05 06:43:29;;;;;;;;;;;17.40;99.90;;;;;;5016092;28;20335;-68
2023/01/05 06:45:56;;;;;;;;;;;17.50;99.90;;;;;;5015499;28;19960;-73
2023/01/05 06:48:23;;;;;;;;;;;17.60;99.90;;;;;;5016210;28;19925;-71
2023/01/05 06:50:50;;;;;;;;;;;17.70;99.90;;;;;;5015940;28;19913;-69
2023/01/05 06:53:16;;;;;;;;;;;17.80;99.90;;;;;;5015670;28;19933;-70
2023/01/05 06:55:43;;;;;;;;;;;17.90;99.90;;;;;;5015560;28;19928;-73
2023/01/05 06:58:10;;;;;;;;;;;18.00;99.90;;;;;;5015979;28;19984;-71
2023/01/05 07:00:37;;;;;;;;;;;18.00;99.90;;;;;;5015571;28;19920;-69
2023/01/05 07:03:05;;;;;;;;;;;17.90;99.90;;;;;;5016053;28;20014;-68
2023/01/05 07:05:35;;;;;;;;;;;18.00;99.90;;;;;;5014572;28;20292;-76
2023/01/05 07:08:02;;;;;;;;;;;18.10;99.90;;;;;;5016089;28;20005;-71
2023/01/05 07:10:29;;;;;;;;;;;18.30;99.90;;;;;;5014750;28;19916;-76
2023/01/05 07:12:55;;;;;;;;;;;18.30;99.90;;;;;;5015352;28;19909;-71
2023/01/05 07:15:22;;;;;;;;;;;18.40;99.90;;;;;;5015115;28;19918;-72
2023/01/05 07:17:49;;;;;;;;;;;18.50;99.90;;;;;;5015833;28;19914;-72
2023/01/05 07:20:16;;;;;;;;;;;18.50;99.90;;;;;;5015796;28;19956;-74
2023/01/05 07:22:42;;;;;;;;;;;18.60;99.90;;;;;;5016137;28;19924;-77
2023/01/05 07:25:10;;;;;;;;;;;18.70;99.90;;;;;;5015416;28;19913;-74
2023/01/05 07:27:36;;;;;;;;;;;18.70;99.90;;;;;;5015927;28;19914;-73
2023/01/05 07:30:08;;;;;;;;;;;18.80;99.90;;;;;;5011148;28;19936;-72
2023/01/05 07:32:35;;;;;;;;;;;18.70;99.90;;;;;;5005382;28;20776;-76
2023/01/05 07:35:12;;;;;;;;;;;18.70;99.90;;;;;;5006139;28;19925;-70
2023/01/05 07:37:39;;;;;;;;;;;18.70;99.90;;;;;;5006603;28;19918;-76
2023/01/05 07:40:06;;;;;;;;;;;18.70;99.90;;;;;;5006883;28;20011;-69
2023/01/05 07:42:32;;;;;;;;;;;18.70;99.90;;;;;;5006330;28;19917;-74
2023/01/05 07:45:02;;;;;;;;;;;18.70;99.90;;;;;;5005749;28;19940;-75
2023/01/05 07:47:30;;;;;;;;;;;18.60;99.90;;;;;;5004457;28;19914;-70
2023/01/05 07:49:56;;;;;;;;;;;18.70;99.90;;;;;;5006297;28;20347;-75
2023/01/05 07:52:23;;;;;;;;;;;18.70;99.90;;;;;;5006390;28;19925;-72
2023/01/05 07:54:50;;;;;;;;;;;18.70;99.90;;;;;;5005886;28;19921;-72
2023/01/05 07:57:16;;;;;;;;;;;18.80;99.90;;;;;;5005270;28;19918;-78
2023/01/05 07:59:43;;;;;;;;;;;18.80;99.90;;;;;;5006036;28;19914;-73
2023/01/05 08:02:10;;;;;;;;;;;18.70;99.90;;;;;;5005789;28;19917;-73
2023/01/05 08:04:36;;;;;;;;;;;18.70;99.90;;;;;;5006440;28;19913;-75
2023/01/05 08:07:08;;;;;;;;;;;18.70;99.90;;;;;;5005676;28;19914;-76
2023/01/05 08:12:20;;;;;;;;;;;18.70;99.90;;;;;;5006192;28;20439;-75
2023/01/05 08:14:46;;;;;;;;;;;18.70;99.90;;;;;;5006364;28;19922;-74
2023/01/05 08:17:13;;;;;;;;;;;18.70;99.90;;;;;;5005386;28;19918;-73
2023/01/05 08:19:40;;;;;;;;;;;18.70;99.90;;;;;;5005846;28;19920;-77
2023/01/05 08:22:06;;;;;;;;;;;18.60;99.90;;;;;;5005694;28;19953;-78
2023/01/05 08:24:33;;;;;;;;;;;18.60;99.90;;;;;;5004650;28;19957;-78
2023/01/05 08:27:00;;;;;;;;;;;18.60;99.90;;;;;;5005566;28;19935;-74
2023/01/05 08:29:26;;;;;;;;;;;18.50;99.90;;;;;;5005227;28;19919;-74
2023/01/05 08:31:53;;;;;;;;;;;18.50;99.90;;;;;;5007194;28;20119;-77
2023/01/05 08:34:20;;;;;;;;;;;18.50;99.90;;;;;;5013636;28;19921;-77
2023/01/05 08:36:46;;;;;;;;;;;18.50;99.90;;;;;;5013244;28;19949;-75
2023/01/05 08:39:13;;;;;;;;;;;18.40;99.90;;;;;;5013519;28;20125;-74
2023/01/05 08:41:40;;;;;;;;;;;18.50;99.90;;;;;;5013807;28;19913;-78
2023/01/05 08:44:10;;;;;;;;;;;18.50;99.90;;;;;;5013355;28;19924;-76
2023/01/05 08:46:37;;;;;;;;;;;18.40;99.90;;;;;;5013304;28;19917;-74
2023/01/05 08:49:05;;;;;;;;;;;18.40;99.90;;;;;;5013476;28;19936;-75
2023/01/05 08:51:32;;;;;;;;;;;18.40;99.90;;;;;;5014208;28;19916;-77
2023/01/05 08:53:58;;;;;;;;;;;18.40;99.90;;;;;;5014034;28;19913;-77
2023/01/05 08:56:25;;;;;;;;;;;18.50;99.90;;;;;;5013398;28;20261;-76
2023/01/05 08:58:54;;;;;;;;;;;18.50;99.90;;;;;;5011910;28;19913;-74
2023/01/05 09:01:22;;;;;;;;;;;18.50;99.90;;;;;;5013004;28;19952;-75
2023/01/05 09:03:49;;;;;;;;;;;18.50;99.90;;;;;;5014165;28;19913;-77
2023/01/05 09:06:16;;;;;;;;;;;18.50;99.90;;;;;;5012543;28;20431;-71
2023/01/05 09:08:43;;;;;;;;;;;18.40;99.90;;;;;;5013342;28;19985;-68
2023/01/05 09:11:11;;;;;;;;;;;18.40;99.90;;;;;;5013210;28;19913;-76
2023/01/05 09:13:38;;;;;;;;;;;18.40;99.90;;;;;;5012790;28;20007;-71
2023/01/05 09:16:12;;;;;;;;;;;18.40;99.90;;;;;;5012737;28;19967;-70
2023/01/05 09:18:40;;;;;;;;;;;18.40;99.90;;;;;;5012901;28;20004;-76
2023/01/05 09:21:08;;;;;;;;;;;18.40;99.90;;;;;;5012828;28;19910;-77
2023/01/05 09:23:35;;;;;;;;;;;18.40;99.90;;;;;;5012802;28;19910;-68
2023/01/05 09:26:10;;;;;;;;;;;18.40;99.90;;;;;;5013178;28;20051;-76
2023/01/05 09:28:37;;;;;;;;;;;18.30;99.90;;;;;;5012736;28;19932;-75
2023/01/05 09:31:08;;;;;;;;;;;18.40;99.90;;;;;;5013112;28;19925;-73
2023/01/05 09:33:34;;;;;;;;;;;18.40;99.90;;;;;;5012401;28;20360;-72
2023/01/05 09:36:01;;;;;;;;;;;18.30;99.90;;;;;;5011688;28;20352;-72
2023/01/05 09:38:28;;;;;;;;;;;18.30;99.90;;;;;;5012470;28;20011;-70
2023/01/05 09:40:57;;;;;;;;;;;18.30;99.90;;;;;;5012587;28;20386;-71
2023/01/05 09:43:30;;;;;;;;;;;18.30;99.90;;;;;;5012269;28;19958;-76
2023/01/05 09:45:57;;;;;;;;;;;18.30;99.90;;;;;;5012276;28;19956;-73
2023/01/05 09:48:24;;;;;;;;;;;18.30;99.90;;;;;;5012489;28;19917;-71
2023/01/05 09:50:51;;;;;;;;;;;18.30;99.90;;;;;;5004408;28;19914;-70
2023/01/05 09:53:21;;;;;;;;;;;18.20;99.90;;;;;;5005861;28;20688;-76
2023/01/05 09:55:49;;;;;;;;;;;18.30;99.90;;;;;;5003370;28;19928;-76
2023/01/05 09:58:18;;;;;;;;;;;18.30;99.90;;;;;;5003997;28;19928;-74
2023/01/05 10:00:49;;;;;;;;;;;18.30;99.90;;;;;;5004130;28;20274;-76
2023/01/05 10:03:18;;;;;;;;;;;18.20;99.90;;;;;;5003670;28;19913;-74
2023/01/05 10:05:46;;;;;;;;;;;18.30;99.90;;;;;;5004428;28;19914;-77
2023/01/05 10:08:18;;;;;;;;;;;18.20;99.90;;;;;;5004189;28;19913;-76
2023/01/05 10:13:38;;;;;;;;;;;18.20;99.90;;;;;;5003887;28;19960;-76
2023/01/05 10:16:05;;;;;;;;;;;18.20;99.90;;;;;;5003844;28;19921;-70
2023/01/05 10:18:33;;;;;;;;;;;18.20;99.90;;;;;;5004998;28;19913;-74
2023/01/05 10:21:11;;;;;;;;;;;18.30;99.90;;;;;;5004091;28;19949;-78
2023/01/05 10:23:48;;;;;;;;;;;18.20;99.90;;;;;;5004521;28;19963;-72
2023/01/05 10:26:43;;;;;;;;;;;18.20;99.90;;;;;;5003897;28;19920;-71
2023/01/05 10:29:12;;;;;;;;;;;18.20;99.90;;;;;;5001885;28;19914;-74
2023/01/05 10:31:48;;;;;;;;;;;18.20;99.90;;;;;;5003975;28;19914;-69
2023/01/05 10:34:30;;;;;;;;;;;18.20;99.90;;;;;;5003918;28;19928;-73
2023/01/05 10:37:06;;;;;;;;;;;18.20;99.90;;;;;;5003494;28;19925;-73
2023/01/05 10:39:36;;;;;;;;;;;18.10;99.90;;;;;;5003256;28;19925;-73
2023/01/05 10:42:03;;;;;;;;;;;18.10;99.90;;;;;;5003295;28;20449;-73
2023/01/05 10:44:44;;;;;;;;;;;18.20;99.90;;;;;;5003745;28;19940;-74
2023/01/05 10:47:12;;;;;;;;;;;18.10;99.90;;;;;;5003955;28;19928;-77
2023/01/05 10:49:40;;;;;;;;;;;18.00;99.90;;;;;;5003273;28;19920;-72
2023/01/05 10:52:11;;;;;;;;;;;18.00;99.90;;;;;;5003637;28;20011;-76
2023/01/05 10:54:43;;;;;;;;;;;17.90;99.90;;;;;;5003274;28;19928;-76
2023/01/05 10:57:28;;;;;;;;;;;17.90;99.90;;;;;;5003304;28;19935;-78
2023/01/05 10:59:57;;;;;;;;;;;17.90;99.90;;;;;;5003592;28;19918;-77
2023/01/05 11:02:24;;;;;;;;;;;18.00;99.90;;;;;;5003406;28;19975;-78
2023/01/05 11:04:51;;;;;;;;;;;18.00;99.90;;;;;;5003341;28;19914;-78
2023/01/05 11:07:18;;;;;;;;;;;17.90;99.90;;;;;;5006301;28;19914;-78
2023/01/05 11:09:47;;;;;;;;;;;17.90;99.90;;;;;;5007258;28;19914;-77
2023/01/05 11:12:19;;;;;;;;;;;17.90;99.90;;;;;;5007071;28;19917;-78
2023/01/05 11:14:49;;;;;;;;;;;17.90;99.90;;;;;;5006469;28;19925;-76
2023/01/05 11:17:19;;;;;;;;;;;17.90;99.90;;;;;;5006898;28;19922;-72
2023/01/05 11:19:48;;;;;;;;;;;17.90;99.90;;;;;;5007025;28;19920;-77
2023/01/05 11:22:33;;;;;;;;;;;17.90;99.90;;;;;;5006734;28;19913;-71
2023/01/05 11:25:18;;;;;;;;;;;17.90;99.90;;;;;;5006728;28;20436;-76
2023/01/05 11:27:44;;;;;;;;;;;17.80;99.90;;;;;;5006908;28;19914;-69
2023/01/05 11:30:23;;;;;;;;;;;17.80;99.90;;;;;;5007121;28;20048;-75
2023/01/05 11:32:50;;;;;;;;;;;17.90;99.90;;;;;;5006799;28;19972;-71
2023/01/05 11:35:21;;;;;;;;;;;17.90;99.90;;;;;;5005573;28;19936;-75
2023/01/05 11:37:48;;;;;;;;;;;17.90;99.90;;;;;;5006852;28;19960;-74
2023/01/05 11:40:16;;;;;;;;;;;17.80;99.90;;;;;;5006768;28;19921;-73
2023/01/05 11:42:43;;;;;;;;;;;17.80;99.90;;;;;;5006255;28;20535;-68
2023/01/05 11:45:10;;;;;;;;;;;17.80;99.90;;;;;;5006203;28;19914;-73
2023/01/05 11:47:38;;;;;;;;;;;17.80;99.90;;;;;;5005934;28;20265;-73
2023/01/05 11:50:14;;;;;;;;;;;17.80;99.90;;;;;;5006298;28;20348;-74
2023/01/05 11:52:40;;;;;;;;;;;17.80;99.90;;;;;;5006384;28;19920;-74
2023/01/05 11:55:19;;;;;;;;;;;17.80;99.90;;;;;;5006106;28;19921;-75
2023/01/05 11:57:50;;;;;;;;;;;17.80;99.90;;;;;;5006371;28;20004;-72
2023/01/05 12:00:23;;;;;;;;;;;17.80;99.90;;;;;;5006186;28;20654;-68
2023/01/05 12:02:52;;;;;;;;;;;17.70;99.90;;;;;;5012676;28;19980;-72
2023/01/05 12:05:45;;;;;;;;;;;17.70;99.90;;;;;;5013626;28;19910;-73
2023/01/05 12:08:17;;;;;;;;;;;17.60;99.90;;;;;;5012349;28;19910;-70
2023/01/05 12:10:54;;;;;;;;;;;17.50;99.90;;;;;;5014220;28;20067;-67
2023/01/05 12:13:42;;;;;;;;;;;17.60;99.90;;;;;;5014000;28;20000;-69
2023/01/05 12:16:18;;;;;;;;;;;17.60;99.90;;;;;;5013789;28;20394;-68
2023/01/05 12:18:47;;;;;;;;;;;17.60;99.90;;;;;;5013399;28;19952;-75
2023/01/05 12:21:22;;;;;;;;;;;17.50;99.90;;;;;;5013648;28;19967;-74
2023/01/05 12:23:49;;;;;;;;;;;17.50;99.90;;;;;;5014125;28;20330;-70
2023/01/05 12:26:18;;;;;;;;;;;17.40;99.90;;;;;;5013662;28;19963;-68
2023/01/05 12:28:51;;;;;;;;;;;17.40;99.90;;;;;;5014022;28;19913;-77
2023/01/05 12:31:20;;;;;;;;;;;17.40;99.90;;;;;;5013712;28;19910;-77
2023/01/05 12:33:56;;;;;;;;;;;17.30;99.90;;;;;;5013820;28;19967;-76
2023/01/05 12:36:32;;;;;;;;;;;17.40;99.90;;;;;;5013263;28;19921;-73
2023/01/05 12:38:59;;;;;;;;;;;17.40;99.90;;;;;;5013876;28;20347;-76
2023/01/05 12:41:31;;;;;;;;;;;17.40;99.90;;;;;;5013496;28;19957;-73
2023/01/05 12:44:01;;;;;;;;;;;17.50;99.90;;;;;;5013742;28;19913;-74
2023/01/05 12:46:27;;;;;;;;;;;17.40;99.90;;;;;;5013468;28;19910;-68
2023/01/05 12:49:02;;;;;;;;;;;17.40;99.90;;;;;;5013390;28;19933;-71
2023/01/05 12:51:53;;;;;;;;;;;17.30;99.90;;;;;;5013228;28;20000;-76
2023/01/05 12:54:26;;;;;;;;;;;17.20;99.90;;;;;;5013522;28;19917;-76
2023/01/05 12:56:55;;;;;;;;;;;17.10;99.90;;;;;;5013423;28;19917;-68
2023/01/05 12:59:38;;;;;;;;;;;17.10;99.90;;;;;;5013201;28;20016;-70
2023/01/05 13:02:07;;;;;;;;;;;17.10;99.90;;;;;;5013516;28;19952;-71
2023/01/05 13:04:34;;;;;;;;;;;17.10;99.90;;;;;;5012748;28;20356;-71
2023/01/05 13:07:05;;;;;;;;;;;17.10;99.90;;;;;;5013359;28;19921;-70
2023/01/05 13:09:31;;;;;;;;;;;17.10;99.90;;;;;;5013194;28;20408;-71
2023/01/05 13:12:01;;;;;;;;;;;17.20;99.90;;;;;;5013243;28;19909;-72
2023/01/05 13:14:30;;;;;;;;;;;17.20;99.90;;;;;;5012985;28;19921;-75
2023/01/05 13:17:05;;;;;;;;;;;17.20;99.90;;;;;;5013302;28;19916;-76
2023/01/05 13:19:33;;;;;;;;;;;17.20;99.90;;;;;;5012896;28;19996;-76
2023/01/05 13:22:03;;;;;;;;;;;17.20;99.90;;;;;;5013264;28;19920;-76
2023/01/05 13:24:44;;;;;;;;;;;17.20;99.90;;;;;;5012673;28;19997;-75
2023/01/05 13:27:12;;;;;;;;;;;17.20;99.90;;;;;;5013149;28;19910;-77
2023/01/05 13:29:41;;;;;;;;;;;17.20;99.90;;;;;;5011966;28;19982;-76
2023/01/05 13:32:33;;;;;;;;;;;17.20;99.90;;;;;;5013013;28;19909;-76
2023/01/05 13:35:12;;;;;;;;;;;17.20;99.90;;;;;;5010180;28;19917;-76
2023/01/05 13:37:51;;;;;;;;;;;17.10;99.90;;;;;;5012830;28;19909;-76
2023/01/05 13:40:37;;;;;;;;;;;17.10;99.90;;;;;;5012870;28;20288;-77
2023/01/05 13:43:13;;;;;;;;;;;17.10;99.90;;;;;;5005561;28;20020;-75
2023/01/05 13:45:48;;;;;;;;;;;17.10;99.90;;;;;;5012551;28;20375;-77
2023/01/05 13:48:18;;;;;;;;;;;17.10;99.90;;;;;;5012596;28;20008;-77
2023/01/05 13:50:48;;;;;;;;;;;17.10;99.90;;;;;;5012740;28;19909;-77
2023/01/05 13:53:20;;;;;;;;;;;17.00;99.90;;;;;;5012521;28;20001;-76
2023/01/05 13:55:46;;;;;;;;;;;17.00;99.90;;;;;;5012268;28;19928;-77
2023/01/05 13:58:39;;;;;;;;;;;17.00;99.90;;;;;;5012585;28;19910;-77
2023/01/05 14:01:07;;;;;;;;;;;17.00;99.90;;;;;;4996755;28;19913;-75
2023/01/05 14:03:38;;;;;;;;;;;17.00;99.90;;;;;;5012038;28;20004;-76
2023/01/05 14:06:08;;;;;;;;;;;17.00;99.90;;;;;;5012176;28;19917;-76
2023/01/05 14:08:36;;;;;;;;;;;17.00;99.90;;;;;;5012544;28;20396;-76
2023/01/05 14:11:16;;;;;;;;;;;17.00;99.90;;;;;;5012531;28;19918;-77
2023/01/05 14:13:43;;;;;;;;;;;17.00;99.90;;;;;;5012364;28;20319;-76
2023/01/05 14:16:28;;;;;;;;;;;16.90;99.90;;;;;;5012103;28;19948;-76
2023/01/05 14:19:01;;;;;;;;;;;16.90;99.90;;;;;;5012114;28;20314;-71
2023/01/05 14:21:46;;;;;;;;;;;17.00;99.90;;;;;;5012368;28;19910;-77
2023/01/05 14:24:31;;;;;;;;;;;17.00;99.90;;;;;;5012215;28;19968;-77
2023/01/05 14:27:00;;;;;;;;;;;16.90;99.90;;;;;;5012594;28;20322;-77
2023/01/05 14:29:45;;;;;;;;;;;16.90;99.90;;;;;;5012244;28;19913;-76
2023/01/05 14:32:25;;;;;;;;;;;16.90;99.90;;;;;;5012422;28;19916;-76
2023/01/05 14:34:56;;;;;;;;;;;16.90;99.90;;;;;;5011691;28;20020;-77
2023/01/05 14:37:25;;;;;;;;;;;16.90;99.90;;;;;;5012422;28;20001;-74
2023/01/05 14:39:52;;;;;;;;;;;16.90;99.90;;;;;;5012486;28;20371;-75
2023/01/05 14:42:24;;;;;;;;;;;16.90;99.90;;;;;;5015337;28;20334;-75
2023/01/05 14:44:56;;;;;;;;;;;16.90;99.90;;;;;;5016038;28;19910;-75
2023/01/05 14:47:34;;;;;;;;;;;16.90;99.90;;;;;;5016140;28;19916;-76
2023/01/05 14:50:03;;;;;;;;;;;16.90;99.90;;;;;;5015833;28;19909;-75
2023/01/05 14:52:48;;;;;;;;;;;16.90;99.90;;;;;;5016059;28;19956;-76
2023/01/05 14:55:22;;;;;;;;;;;16.90;99.90;;;;;;5015518;28;20392;-76
2023/01/05 14:57:50;;;;;;;;;;;17.00;99.90;;;;;;5016185;28;19913;-75
2023/01/05 15:00:40;;;;;;;;;;;17.00;99.90;;;;;;5016539;28;20267;-77
2023/01/05 15:03:25;;;;;;;;;;;17.00;99.90;;;;;;5011174;28;19909;-77
2023/01/05 15:06:10;;;;;;;;;;;17.00;99.90;;;;;;5015658;28;19913;-77
2023/01/05 15:09:06;;;;;;;;;;;17.00;99.90;;;;;;5015850;28;20396;-77